NCAR-RAP Real-Time Weather Data

Output produced by METARs form (01 December 2020  17:40 UTC)
found at http://weather.rap.ucar.edu/surface/
 
KILG 011651Z 27014G22KT 10SM SCT025 OVC031 07/00 A2963 RMK AO2 SLP034 T00670000 $
KILG 011551Z 27012KT 10SM BKN024 OVC029 06/01 A2964 RMK AO2 SLP036 T00610011 $
KILG 011527Z 26009G17KT 10SM BKN024 OVC045 06/01 A2963 RMK AO2 T00610011 $
KILG 011451Z 26014KT 10SM SCT026 OVC039 07/01 A2962 RMK AO2 SLP030 T00670011 51015 $
KILG 011446Z 25012KT 10SM SCT026 OVC039 07/01 A2962 RMK AO2 $
KILG 011434Z 27014G20KT 10SM BKN027 BKN039 OVC055 07/01 A2961 RMK AO2 T00670011 $
KILG 011351Z 26014G20KT 10SM FEW026 SCT055 06/01 A2960 RMK AO2 SLP022 T00610011 $
KILG 011251Z 23006KT 10SM CLR 06/02 A2958 RMK AO2 SLP015 T00610022 $
KILG 011151Z AUTO 23007KT 10SM CLR 06/03 A2956 RMK AO2 SLP010 70173 T00560028 10094 20056 53010
KILG 011051Z AUTO 22005KT 10SM SCT041 BKN085 06/03 A2954 RMK AO2 SLP004 T00610028 $
KILG 010951Z AUTO 20004KT 10SM SCT065 07/03 A2952 RMK AO2 SLP997 T00670033 $
KILG 010851Z AUTO 25003KT 10SM BKN036 07/04 A2953 RMK AO2 SLP999 T00720039 51012 $
KILG 010751Z AUTO 25005KT 10SM CLR 07/04 A2953 RMK AO2 SLP998 T00720039 $
KILG 010651Z AUTO 27008KT 10SM FEW038 SCT070 09/04 A2951 RMK AO2 SLP992 T00890039
KILG 010630Z AUTO 28008KT 10SM SCT023 BKN038 BKN070 09/04 A2950 RMK AO2 T00890044
KILG 010616Z AUTO 28009KT 10SM BKN022 09/04 A2950 RMK AO2 T00940044
KILG 010551Z AUTO 27009KT 10SM FEW021 09/06 A2949 RMK AO2 SLP987 60000 T00940056 10156 20094 51007
KILG 010451Z AUTO 26007KT 10SM CLR 10/07 A2949 RMK AO2 SLP984 T01000072 401780078
KILG 010351Z 25008KT 10SM BKN042 12/08 A2949 RMK AO2 SLP986 T01170083
KILG 010251Z 22006KT 10SM SCT046 OVC060 13/09 A2947 RMK AO2 SLP980 60000 T01280094 53029